Time;durP1;ratioP1;P1;durP2;ratioP2;P2;SDS_P1;SDS_P2;PMS_P1;PMS_P2;Temp;Humidity;BMP_temperature;BMP_pressure;BME280_temperature;BME280_humidity;BME280_pressure;Samples;Min_cycle;Max_cycle;Signal;HPM_P1;HPM_P2
2021/04/13 00:02:28;;;;;;;3.33;2.28;;;;;;;3.18;71.68;97263.66;5030495;28;20045;-68
2021/04/13 00:05:00;;;;;;;3.40;2.50;;;;;;;3.18;72.20;97260.16;5031931;28;20059;-69
2021/04/13 00:07:29;;;;;;;4.38;2.42;;;;;;;3.15;72.38;97266.84;5031089;28;20053;-69
2021/04/13 00:09:57;;;;;;;3.47;2.30;;;;;;;3.05;72.30;97264.03;5031320;28;20068;-68
2021/04/13 00:12:27;;;;;;;4.22;2.40;;;;;;;3.07;72.51;97261.88;5031471;28;20049;-68
2021/04/13 00:14:58;;;;;;;3.30;2.30;;;;;;;3.01;72.17;97265.56;5030825;28;20049;-68
2021/04/13 00:17:28;;;;;;;3.97;2.67;;;;;;;2.96;72.68;97268.19;5031439;28;20053;-68
2021/04/13 00:20:00;;;;;;;4.47;2.60;;;;;;;2.93;73.01;97271.38;5031117;28;20080;-68
2021/04/13 00:22:28;;;;;;;2.90;1.88;;;;;;;2.88;73.21;97267.56;5042911;28;20480;-68
2021/04/13 00:24:56;;;;;;;4.80;2.60;;;;;;;2.86;73.64;97275.03;5051064;28;20131;-68
2021/04/13 00:27:24;;;;;;;4.13;2.50;;;;;;;2.86;74.05;97269.66;5050434;28;20045;-68
2021/04/13 00:29:51;;;;;;;5.38;3.00;;;;;;;2.80;74.34;97273.34;5050971;28;20041;-68
2021/04/13 00:32:22;;;;;;;5.78;2.95;;;;;;;2.76;74.83;97269.50;5050102;28;20507;-68
2021/04/13 00:34:53;;;;;;;4.47;2.92;;;;;;;2.65;75.27;97270.41;5051845;28;20041;-68
2021/04/13 00:37:24;;;;;;;5.32;3.03;;;;;;;2.52;75.79;97268.06;5049856;28;20047;-68
2021/04/13 00:39:52;;;;;;;5.72;3.35;;;;;;;2.44;76.55;97271.13;5051662;28;20404;-69
2021/04/13 00:42:26;;;;;;;5.63;3.15;;;;;;;2.37;76.90;97275.88;5049390;28;20041;-68
2021/04/13 00:44:55;;;;;;;5.63;3.38;;;;;;;2.28;77.27;97264.69;5051072;28;20057;-68
2021/04/13 00:47:25;;;;;;;6.10;3.13;;;;;;;2.20;77.94;97267.78;5050144;28;20065;-68
2021/04/13 00:49:55;;;;;;;5.90;3.55;;;;;;;2.17;78.14;97262.88;5050380;28;20044;-68
2021/04/13 00:52:29;;;;;;;6.15;3.72;;;;;;;2.13;78.53;97265.22;5050456;28;20119;-68
2021/04/13 00:54:58;;;;;;;8.23;3.97;;;;;;;2.09;78.76;97261.44;5050162;28;20455;-68
2021/04/13 00:57:29;;;;;;;7.60;3.85;;;;;;;2.04;79.02;97264.00;5050575;28;20511;-68
2021/04/13 00:59:57;;;;;;;7.55;3.80;;;;;;;1.97;79.54;97268.69;5047392;28;20041;-68
2021/04/13 01:02:27;;;;;;;6.05;3.83;;;;;;;1.93;79.70;97270.22;5050588;28;20127;-68
2021/04/13 01:04:57;;;;;;;6.32;4.10;;;;;;;1.88;79.98;97272.81;5050020;28;20680;-68
2021/04/13 01:07:31;;;;;;;7.82;4.50;;;;;;;1.83;80.26;97271.69;5049947;28;20088;-68
2021/04/13 01:10:07;;;;;;;8.40;4.35;;;;;;;1.88;80.62;97268.28;5050538;28;20053;-68
2021/04/13 01:12:36;;;;;;;7.40;4.20;;;;;;;1.87;80.50;97277.38;5049674;28;20044;-68
2021/04/13 01:15:04;;;;;;;7.78;4.72;;;;;;;1.92;80.67;97280.16;5050680;28;20055;-70
2021/04/13 01:17:30;;;;;;;9.25;4.63;;;;;;;1.93;80.55;97276.44;5049651;28;20443;-68
2021/04/13 01:20:02;;;;;;;6.90;4.35;;;;;;;1.97;80.86;97274.06;5050948;28;20049;-68
2021/04/13 01:22:36;;;;;;;7.00;4.47;;;;;;;1.96;80.68;97275.13;5049436;28;20053;-69
2021/04/13 01:25:07;;;;;;;6.75;4.00;;;;;;;2.00;80.70;97273.59;5049865;28;20571;-68
2021/04/13 01:27:34;;;;;;;8.05;4.43;;;;;;;1.99;80.58;97280.03;5049692;28;20515;-68
2021/04/13 01:30:12;;;;;;;8.40;4.82;;;;;;;2.01;80.65;97277.91;5049780;28;20068;-69
2021/04/13 01:32:38;;;;;;;7.82;4.68;;;;;;;2.04;80.46;97278.25;5049992;28;20132;-68
2021/04/13 01:35:10;;;;;;;6.88;4.47;;;;;;;2.09;80.91;97277.53;5050043;28;20052;-69
2021/04/13 01:37:57;;;;;;;8.32;4.95;;;;;;;2.15;80.90;97279.25;5050758;28;20088;-69
2021/04/13 01:40:39;;;;;;;7.40;4.82;;;;;;;2.20;81.21;97275.84;5049267;28;20508;-69
2021/04/13 01:43:07;;;;;;;8.20;4.80;;;;;;;2.17;80.53;97277.13;5049780;28;20045;-69
2021/04/13 01:45:34;;;;;;;7.10;4.65;;;;;;;2.12;80.28;97274.34;5050223;28;20385;-69
2021/04/13 01:48:03;;;;;;;7.97;4.82;;;;;;;2.10;80.20;97271.09;5049341;28;20122;-69
2021/04/13 01:50:32;;;;;;;7.57;4.38;;;;;;;2.07;79.98;97271.56;5050012;28;20048;-68
2021/04/13 01:53:04;;;;;;;6.70;4.60;;;;;;;2.09;80.10;97269.47;5048800;28;20045;-69
2021/04/13 01:55:32;;;;;;;7.17;4.80;;;;;;;2.09;80.15;97280.22;5050054;28;20045;-68
2021/04/13 01:58:09;;;;;;;7.65;4.90;;;;;;;2.06;80.35;97269.94;5049363;28;20049;-69
2021/04/13 02:00:44;;;;;;;8.05;4.80;;;;;;;2.08;80.58;97271.31;5049742;28;20534;-69
2021/04/13 02:03:14;;;;;;;7.00;4.78;;;;;;;2.12;80.55;97258.22;5049347;28;20056;-69
2021/04/13 02:05:42;;;;;;;8.02;4.70;;;;;;;2.05;80.46;97273.69;5049403;28;20049;-68
2021/04/13 02:08:17;;;;;;;7.63;4.95;;;;;;;1.96;80.48;97269.75;5049864;28;20049;-69
2021/04/13 02:10:48;;;;;;;6.45;4.47;;;;;;;1.87;80.71;97268.50;5049249;28;20715;-68
2021/04/13 02:13:19;;;;;;;6.75;4.70;;;;;;;1.71;80.94;97268.22;5050122;28;20056;-69
2021/04/13 02:15:56;;;;;;;7.70;4.88;;;;;;;1.67;81.35;97272.47;5049347;28;20111;-69
2021/04/13 02:18:28;;;;;;;8.20;4.95;;;;;;;1.63;81.61;97268.63;5049424;28;20045;-69
2021/04/13 02:20:55;;;;;;;8.93;5.15;;;;;;;1.55;81.88;97263.59;5049867;28;20431;-69
2021/04/13 02:23:25;;;;;;;8.75;5.72;;;;;;;1.55;82.21;97263.59;5048931;28;20045;-68
2021/04/13 02:25:51;;;;;;;6.97;4.78;;;;;;;1.49;82.26;97275.28;5050029;28;20069;-69
2021/04/13 02:28:18;;;;;;;8.38;5.75;;;;;;;1.50;82.49;97276.91;5048372;28;20041;-69
2021/04/13 02:30:47;;;;;;;8.50;5.53;;;;;;;1.48;82.56;97271.00;5050210;28;20045;-69
2021/04/13 02:33:24;;;;;;;9.52;5.90;;;;;;;1.49;82.52;97275.28;5048476;28;20044;-69
2021/04/13 02:35:51;;;;;;;8.68;5.13;;;;;;;1.51;82.71;97270.50;5049728;28;20099;-69
2021/04/13 02:38:21;;;;;;;8.55;5.32;;;;;;;1.48;82.52;97274.47;5048660;28;20048;-69
2021/04/13 02:40:57;;;;;;;9.27;5.45;;;;;;;1.42;82.66;97266.56;5049442;28;20045;-69
2021/04/13 02:43:27;;;;;;;7.65;5.30;;;;;;;1.41;82.85;97256.88;5049667;28;20041;-69
2021/04/13 02:45:57;;;;;;;10.00;5.43;;;;;;;1.43;82.96;97265.50;5052558;28;20106;-69
2021/04/13 02:48:28;;;;;;;7.20;5.22;;;;;;;1.42;83.13;97261.22;5053134;28;20044;-69
2021/04/13 02:50:58;;;;;;;8.65;5.60;;;;;;;1.38;83.33;97266.22;5052261;28;20102;-69
2021/04/13 02:53:34;;;;;;;7.38;5.15;;;;;;;1.39;83.47;97264.34;5053008;28;20041;-69
2021/04/13 02:56:02;;;;;;;8.48;5.68;;;;;;;1.39;83.50;97258.97;5052616;28;20420;-69
2021/04/13 02:58:35;;;;;;;9.48;6.18;;;;;;;1.37;83.65;97258.41;5052621;28;20049;-69
2021/04/13 03:01:01;;;;;;;9.15;5.72;;;;;;;1.34;83.70;97262.38;5052634;28;20496;-69
2021/04/13 03:03:32;;;;;;;11.05;5.97;;;;;;;1.36;83.83;97254.91;5052044;28;20049;-69
2021/04/13 03:05:59;;;;;;;8.10;5.25;;;;;;;1.37;83.84;97266.47;5053322;28;20056;-69
2021/04/13 03:08:27;;;;;;;7.28;5.13;;;;;;;1.30;83.65;97263.88;5051489;28;20044;-69
2021/04/13 03:10:56;;;;;;;8.68;5.45;;;;;;;1.27;83.80;97261.69;5053171;28;20064;-69
2021/04/13 03:13:26;;;;;;;7.82;5.63;;;;;;;1.27;84.02;97261.69;5051610;28;20064;-69
2021/04/13 03:15:55;;;;;;;7.35;5.55;;;;;;;1.26;83.93;97266.25;5052655;28;20557;-69
2021/04/13 03:18:26;;;;;;;8.43;5.70;;;;;;;1.22;84.04;97258.91;5051692;28;20052;-69
2021/04/13 03:21:00;;;;;;;10.48;5.88;;;;;;;1.17;84.05;97258.81;5052334;28;20053;-70
2021/04/13 03:23:30;;;;;;;7.88;5.45;;;;;;;1.15;84.27;97259.03;5052198;28;20412;-69
2021/04/13 03:25:58;;;;;;;9.55;5.75;;;;;;;1.14;84.24;97252.03;5051651;28;20412;-69
2021/04/13 03:28:29;;;;;;;9.00;6.28;;;;;;;1.14;84.45;97256.56;5052238;28;20041;-69
2021/04/13 03:30:55;;;;;;;9.90;6.60;;;;;;;1.14;84.55;97254.69;5051649;28;20590;-69
2021/04/13 03:33:24;;;;;;;10.30;6.70;;;;;;;1.11;84.62;97257.88;5052253;28;20049;-69
2021/04/13 03:35:51;;;;;;;9.95;6.57;;;;;;;1.11;84.74;97257.88;5051750;28;20045;-69
2021/04/13 03:38:23;;;;;;;10.50;6.72;;;;;;;1.13;84.91;97255.75;5051684;28;20400;-69
2021/04/13 03:40:52;;;;;;;9.93;6.88;;;;;;;1.14;84.86;97257.38;5052361;28;20056;-69
2021/04/13 03:43:22;;;;;;;10.13;6.70;;;;;;;1.15;84.84;97258.19;5051457;28;20076;-69
2021/04/13 03:45:52;;;;;;;13.50;6.97;;;;;;;1.14;84.82;97256.56;5052556;28;20405;-69
2021/04/13 03:48:21;;;;;;;11.68;7.18;;;;;;;1.14;84.91;97252.03;5050816;28;20068;-69
2021/04/13 03:50:58;;;;;;;10.35;6.90;;;;;;;1.14;85.05;97252.03;5052365;28;20083;-69
2021/04/13 03:53:31;;;;;;;11.45;6.50;;;;;;;1.12;84.99;97251.44;5050814;28;20041;-69
2021/04/13 03:56:00;;;;;;;12.98;6.93;;;;;;;1.15;85.13;97248.31;5051600;28;20045;-69
2021/04/13 03:58:32;;;;;;;9.13;6.40;;;;;;;1.15;84.75;97251.00;5051066;28;20045;-69
2021/04/13 04:00:58;;;;;;;9.88;6.43;;;;;;;1.15;84.96;97263.56;5051245;28;20056;-69
2021/04/13 04:03:24;;;;;;;10.55;6.20;;;;;;;1.12;84.91;97259.50;5051283;28;20040;-69
2021/04/13 04:05:53;;;;;;;9.57;6.25;;;;;;;1.12;84.94;97262.19;5050881;28;20075;-70
2021/04/13 04:08:30;;;;;;;11.07;6.20;;;;;;;1.08;84.80;97258.34;5051681;28;20049;-69
2021/04/13 04:10:57;;;;;;;8.63;5.85;;;;;;;1.09;84.90;97259.16;5050817;28;20049;-69
2021/04/13 04:13:29;;;;;;;9.00;5.97;;;;;;;1.07;84.77;97261.25;5051350;28;20037;-69
2021/04/13 04:16:14;;;;;;;12.45;5.95;;;;;;;1.08;84.79;97258.34;5051101;28;20412;-69
2021/04/13 04:18:42;;;;;;;8.95;5.72;;;;;;;1.06;84.75;97265.81;5051066;28;20049;-69
2021/04/13 04:21:27;;;;;;;8.30;5.68;;;;;;;1.08;84.74;97263.69;5050981;28;20052;-69
2021/04/13 04:23:57;;;;;;;8.85;6.07;;;;;;;1.08;84.63;97258.34;5050616;28;20056;-69
2021/04/13 04:26:26;;;;;;;10.50;6.78;;;;;;;1.09;84.82;97265.31;5051056;28;20045;-69
2021/04/13 04:28:53;;;;;;;10.75;6.70;;;;;;;1.12;84.88;97264.06;5050585;28;20075;-69
2021/04/13 04:31:35;;;;;;;9.95;6.28;;;;;;;1.15;84.83;97267.09;5050689;28;20047;-69
2021/04/13 04:34:47;;;;;;;10.40;6.38;;;;;;;1.18;84.71;97269.28;5050864;28;20043;-69
2021/04/13 04:37:30;;;;;;;12.32;7.55;;;;;;;1.17;84.77;97267.66;5049798;28;20045;-69
2021/04/13 04:40:46;;;;;;;12.82;7.15;;;;;;;1.19;84.73;97270.91;5049466;28;20053;-69
2021/04/13 04:43:15;;;;;;;10.60;7.18;;;;;;;1.16;84.50;97276.75;5050553;28;20052;-69
2021/04/13 04:45:50;;;;;;;11.65;7.32;;;;;;;1.22;84.68;97273.13;5050383;28;20040;-69
2021/04/13 04:48:29;;;;;;;10.00;6.95;;;;;;;1.29;84.59;97273.00;5050797;28;20428;-69
2021/04/13 04:50:58;;;;;;;10.07;6.55;;;;;;;1.30;84.48;97272.78;5050165;28;20075;-69
2021/04/13 04:53:26;;;;;;;10.52;6.78;;;;;;;1.38;84.58;97276.94;5050720;28;20056;-69
2021/04/13 04:55:54;;;;;;;10.82;6.65;;;;;;;1.39;84.33;97280.44;5051056;28;20423;-68
2021/04/13 04:58:21;;;;;;;10.02;6.47;;;;;;;1.44;84.32;97277.88;5050373;28;20409;-69
2021/04/13 05:00:47;;;;;;;10.85;6.57;;;;;;;1.48;84.23;97279.84;5049132;28;20045;-69
2021/04/13 05:03:13;;;;;;;9.32;6.07;;;;;;;1.51;84.02;97283.91;5048869;28;20118;-69
2021/04/13 05:05:40;;;;;;;10.35;6.55;;;;;;;1.58;84.10;97283.81;5050674;28;20048;-69
2021/04/13 05:08:07;;;;;;;10.50;6.50;;;;;;;1.61;83.98;97292.19;5047344;28;20071;-69
2021/04/13 05:10:33;;;;;;;11.00;6.47;;;;;;;1.67;83.60;97290.41;5050841;28;20063;-68
2021/04/13 05:12:59;;;;;;;8.82;6.07;;;;;;;1.68;83.45;97295.56;5049597;28;20055;-70
2021/04/13 05:15:25;;;;;;;10.75;6.20;;;;;;;1.73;83.61;97295.66;5050312;28;20068;-76
2021/04/13 05:17:51;;;;;;;10.13;6.55;;;;;;;1.80;83.17;97290.97;5049684;28;20415;-75
2021/04/13 05:20:18;;;;;;;12.65;7.47;;;;;;;1.83;82.86;97298.56;5049306;28;20684;-75
2021/04/13 05:22:44;;;;;;;16.45;9.65;;;;;;;1.84;83.06;97304.72;5049676;28;20526;-74
2021/04/13 05:25:12;;;;;;;16.77;8.30;;;;;;;1.87;83.25;97298.88;5049363;28;20043;-76
2021/04/13 05:27:39;;;;;;;12.32;7.22;;;;;;;1.91;83.02;97308.09;5050027;28;20049;-76
2021/04/13 05:30:07;;;;;;;10.23;6.63;;;;;;;1.91;82.66;97310.78;5048921;28;20610;-77
2021/04/13 05:32:33;;;;;;;11.27;7.03;;;;;;;1.94;82.35;97309.50;5050552;28;20056;-76
2021/04/13 05:34:59;;;;;;;9.95;6.63;;;;;;;1.97;82.25;97309.00;5049489;28;20148;-77
2021/04/13 05:37:28;;;;;;;13.07;7.90;;;;;;;1.97;82.15;97314.38;5050058;28;20104;-76
2021/04/13 05:39:54;;;;;;;11.23;6.93;;;;;;;1.95;82.39;97313.81;5049379;28;20049;-76
2021/04/13 05:42:25;;;;;;;11.95;7.65;;;;;;;1.91;82.52;97309.97;5049655;28;20048;-76
2021/04/13 05:44:53;;;;;;;9.95;6.85;;;;;;;1.89;82.46;97306.72;5049947;28;20101;-76
2021/04/13 05:47:19;;;;;;;11.07;7.25;;;;;;;1.85;82.30;97308.22;5049160;28;20049;-77
2021/04/13 05:49:45;;;;;;;11.43;7.93;;;;;;;1.83;82.49;97311.97;5049994;28;20047;-76
2021/04/13 05:52:13;;;;;;;11.65;7.68;;;;;;;1.92;82.57;97311.59;5048947;28;20128;-76
2021/04/13 05:54:39;;;;;;;13.30;7.10;;;;;;;1.97;82.39;97303.63;5050319;28;20045;-76
2021/04/13 05:57:06;;;;;;;11.85;7.30;;;;;;;2.02;82.09;97311.78;5049483;28;20068;-77
2021/04/13 05:59:33;;;;;;;11.45;6.88;;;;;;;2.01;82.04;97308.28;5050037;28;20041;-76
2021/04/13 06:01:59;;;;;;;12.45;7.00;;;;;;;2.00;81.77;97308.53;5049283;28;20048;-77
2021/04/13 06:04:25;;;;;;;10.10;7.00;;;;;;;1.99;81.63;97313.09;5049969;28;20056;-76
2021/04/13 06:06:51;;;;;;;10.63;6.95;;;;;;;2.07;81.76;97311.88;5049252;28;20132;-76
2021/04/13 06:09:18;;;;;;;9.90;7.22;;;;;;;2.15;81.50;97314.19;5049253;28;20080;-77
2021/04/13 06:11:44;;;;;;;10.20;7.18;;;;;;;2.21;81.50;97315.91;5049505;28;20053;-77
2021/04/13 06:14:11;;;;;;;10.05;6.85;;;;;;;2.24;81.25;97318.09;5049187;28;20079;-76
2021/04/13 06:16:39;;;;;;;11.20;8.25;;;;;;;2.30;81.50;97317.16;5049907;28;20488;-76
2021/04/13 06:19:06;;;;;;;10.63;7.10;;;;;;;2.35;81.41;97314.56;5051898;28;20060;-76
2021/04/13 06:21:33;;;;;;;11.05;7.25;;;;;;;2.37;81.25;97324.25;5053892;28;20048;-76
2021/04/13 06:23:59;;;;;;;10.60;7.53;;;;;;;2.35;81.42;97322.63;5052891;28;20049;-76
2021/04/13 06:26:26;;;;;;;10.10;7.30;;;;;;;2.33;81.18;97323.91;5053375;28;20052;-76
2021/04/13 06:28:52;;;;;;;10.25;7.22;;;;;;;2.24;80.56;97326.16;5052800;28;20578;-76
2021/04/13 06:31:18;;;;;;;11.60;8.15;;;;;;;2.18;80.71;97329.81;5052597;28;20052;-76
2021/04/13 06:33:44;;;;;;;12.48;8.30;;;;;;;2.21;81.00;97323.16;5053011;28;20045;-76
2021/04/13 06:36:16;;;;;;;11.23;7.47;;;;;;;2.23;80.38;97335.28;5052810;28;20549;-76
2021/04/13 06:38:43;;;;;;;13.68;8.30;;;;;;;2.18;80.55;97331.69;5053367;28;20049;-77
2021/04/13 06:41:38;;;;;;;10.77;7.90;;;;;;;2.20;81.04;97324.22;5052117;28;20107;-76
2021/04/13 06:44:15;;;;;;;11.43;7.93;;;;;;;2.29;81.05;97323.56;5052940;28;20053;-76
2021/04/13 06:46:53;;;;;;;10.65;7.95;;;;;;;2.31;80.64;97326.84;5052550;28;20045;-77
2021/04/13 06:49:35;;;;;;;12.98;8.18;;;;;;;2.30;80.45;97322.53;5052638;28;20045;-76
2021/04/13 06:52:13;;;;;;;11.70;8.30;;;;;;;2.34;80.89;97320.97;5051839;28;20088;-75
2021/04/13 06:54:42;;;;;;;11.32;8.27;;;;;;;2.45;81.38;97321.97;5052399;28;20073;-75
2021/04/13 06:57:27;;;;;;;12.98;8.15;;;;;;;2.51;81.18;97315.66;5049087;28;20052;-76
2021/04/13 07:00:22;;;;;;;12.18;8.60;;;;;;;2.61;81.32;97315.00;5051708;28;20041;-75
2021/04/13 07:02:55;;;;;;;12.63;8.48;;;;;;;2.67;80.32;97319.41;5052937;28;20110;-75
2021/04/13 07:05:28;;;;;;;15.65;9.40;;;;;;;2.73;80.45;97318.44;5052135;28;20041;-75
2021/04/13 07:08:02;;;;;;;15.00;9.65;;;;;;;2.71;79.84;97315.16;5051967;28;20049;-75
2021/04/13 07:10:31;;;;;;;12.95;8.63;;;;;;;2.78;79.71;97326.56;5052641;28;20049;-75
2021/04/13 07:13:05;;;;;;;15.63;9.23;;;;;;;2.84;79.69;97312.16;5051969;28;20056;-75
2021/04/13 07:15:37;;;;;;;13.85;9.93;;;;;;;2.96;80.12;97313.94;5052279;28;20041;-76
2021/04/13 07:18:07;;;;;;;14.32;10.07;;;;;;;2.99;79.89;97311.56;5051625;28;20056;-76
2021/04/13 07:20:40;;;;;;;17.88;11.98;;;;;;;3.04;79.79;97313.53;5052319;28;20132;-77
2021/04/13 07:23:12;;;;;;;16.70;10.20;;;;;;;3.15;79.70;97309.91;5051861;28;20565;-75
2021/04/13 07:25:45;;;;;;;16.17;10.00;;;;;;;3.18;79.28;97320.19;5051535;28;20045;-75
2021/04/13 07:28:17;;;;;;;15.93;10.57;;;;;;;3.19;78.83;97316.44;5051705;28;20049;-76
2021/04/13 07:30:49;;;;;;;18.40;11.82;;;;;;;3.08;78.17;97320.03;5050297;28;20122;-75
2021/04/13 07:33:18;;;;;;;18.63;11.27;;;;;;;3.12;78.20;97326.53;5052212;28;20052;-75
2021/04/13 07:35:45;;;;;;;20.60;12.65;;;;;;;3.05;77.72;97315.97;5051452;28;20044;-75
2021/04/13 07:38:18;;;;;;;17.95;12.02;;;;;;;3.01;77.74;97316.69;5051262;28;20114;-75
2021/04/13 07:40:46;;;;;;;21.50;13.17;;;;;;;3.14;78.51;97319.06;5051746;28;20049;-75
2021/04/13 07:43:20;;;;;;;22.10;13.27;;;;;;;3.25;78.89;97325.41;5050838;28;20037;-75
2021/04/13 07:45:49;;;;;;;;;;;;;;;3.45;79.10;97324.88;5052573;28;20045;-76
2021/04/13 07:48:32;;;;;;;21.08;11.88;;;;;;;3.54;77.82;97323.38;5050007;28;19936;-75
2021/04/13 07:51:05;;;;;;;;;;;;;;;3.59;77.39;97309.97;5052689;28;20041;-75
2021/04/13 07:53:47;;;;;;;26.33;15.23;;;;;;;3.63;76.68;97317.31;5050698;28;19928;-75
2021/04/13 07:56:22;;;;;;;24.80;15.55;;;;;;;3.56;75.04;97322.06;5051154;28;20052;-75
2021/04/13 07:58:55;;;;;;;27.25;16.38;;;;;;;3.55;75.59;97325.00;5051428;28;20044;-77
2021/04/13 08:01:21;;;;;;;29.58;16.80;;;;;;;3.58;76.13;97335.28;5050172;28;20052;-75
2021/04/13 08:03:47;;;;;;;31.30;17.73;;;;;;;3.65;76.93;97331.34;5051659;28;20052;-76
2021/04/13 08:06:37;;;;;;;32.67;18.80;;;;;;;3.74;76.92;97323.63;5050390;28;20072;-76
2021/04/13 08:09:15;;;;;;;27.63;17.17;;;;;;;3.79;76.42;97325.59;5050863;28;20060;-75
2021/04/13 08:12:05;;;;;;;28.08;16.55;;;;;;;3.87;76.05;97328.66;5051227;28;20059;-76
2021/04/13 08:14:33;;;;;;;29.65;18.15;;;;;;;4.01;75.12;97325.56;5051589;28;20099;-76
2021/04/13 08:17:05;;;;;;;32.58;18.15;;;;;;;4.14;74.65;97327.88;5051524;28;20045;-74
2021/04/13 08:19:33;;;;;;;30.40;17.97;;;;;;;4.23;75.62;97322.84;5050518;28;20110;-74
2021/04/13 08:22:02;;;;;;;29.50;18.10;;;;;;;4.31;75.41;97323.22;5051384;28;20797;-74
2021/04/13 08:24:35;;;;;;;33.33;18.75;;;;;;;4.45;75.75;97329.84;5050259;28;20049;-74
2021/04/13 08:27:23;;;;;;;33.70;20.25;;;;;;;4.57;75.63;97331.56;5050813;28;20083;-74
2021/04/13 08:29:59;;;;;;;38.03;21.02;;;;;;;4.67;75.92;97337.06;5050556;28;20037;-74
2021/04/13 08:32:50;;;;;;;39.60;21.17;;;;;;;4.76;75.08;97335.53;5049903;28;20500;-74
2021/04/13 08:35:27;;;;;;;33.50;19.95;;;;;;;4.84;75.00;97337.72;5051288;28;20099;-74
2021/04/13 08:38:04;;;;;;;30.92;19.48;;;;;;;4.88;73.67;97338.84;5050144;28;20079;-74
2021/04/13 08:40:34;;;;;;;31.45;19.30;;;;;;;4.89;73.95;97332.38;5050359;28;20052;-74
2021/04/13 08:43:15;;;;;;;35.28;21.40;;;;;;;4.95;74.20;97334.03;5050293;28;20041;-74
2021/04/13 08:45:46;;;;;;;31.83;19.10;;;;;;;4.95;73.26;97338.63;5049943;28;20590;-74
2021/04/13 08:48:17;;;;;;;33.70;19.52;;;;;;;4.90;72.50;97331.31;5050361;28;20044;-74
2021/04/13 08:50:48;;;;;;;33.78;19.48;;;;;;;5.06;73.41;97336.81;5049822;28;20526;-74
2021/04/13 08:53:31;;;;;;;33.22;19.90;;;;;;;5.60;73.50;97323.16;5050622;28;20098;-74
2021/04/13 08:56:06;;;;;;;32.00;18.35;;;;;;;6.52;73.50;97318.88;5050156;28;20056;-74
2021/04/13 08:58:44;;;;;;;22.08;14.90;;;;;;;7.05;69.32;97333.84;5050492;28;20049;-75
2021/04/13 09:01:31;;;;;;;21.63;15.27;;;;;;;7.32;66.52;97324.59;5049383;28;20048;-74
2021/04/13 09:04:02;;;;;;;22.35;14.52;;;;;;;7.27;64.87;97332.72;5049765;28;20076;-74
2021/04/13 09:06:44;;;;;;;23.90;14.95;;;;;;;7.24;66.87;97331.38;5050160;28;20397;-74
2021/04/13 09:09:27;;;;;;;21.73;14.45;;;;;;;7.62;64.36;97331.03;5049136;28;20681;-74
2021/04/13 09:12:02;;;;;;;23.38;15.35;;;;;;;7.95;64.74;97329.59;5050499;28;20411;-74
2021/04/13 09:14:33;;;;;;;21.60;14.70;;;;;;;8.06;63.76;97331.97;5049974;28;20764;-74
2021/04/13 09:17:07;;;;;;;21.73;14.60;;;;;;;8.13;62.98;97336.28;5049690;28;20052;-73
2021/04/13 09:19:39;;;;;;;21.42;13.90;;;;;;;7.94;62.60;97347.78;5050637;28;20056;-74
2021/04/13 09:22:19;;;;;;;17.40;11.45;;;;;;;7.55;60.98;97342.97;5049453;28;20052;-74
2021/04/13 09:24:50;;;;;;;18.63;11.85;;;;;;;7.32;62.45;97349.78;5050701;28;20044;-74
2021/04/13 09:27:30;;;;;;;15.85;11.57;;;;;;;7.07;61.69;97342.50;5050147;28;20049;-74
2021/04/13 09:29:59;;;;;;;20.15;13.20;;;;;;;6.85;61.99;97339.25;5049004;28;20040;-74
2021/04/13 09:32:35;;;;;;;19.67;13.10;;;;;;;6.86;63.33;97346.28;5049848;28;20094;-74
2021/04/13 09:35:17;;;;;;;16.55;11.80;;;;;;;6.87;63.69;97339.78;5049176;28;20300;-73
2021/04/13 09:37:56;;;;;;;21.13;11.88;;;;;;;6.94;64.56;97343.06;5050283;28;20053;-73
2021/04/13 09:40:30;;;;;;;16.05;10.57;;;;;;;7.05;64.32;97344.66;5049131;28;20052;-73
2021/04/13 09:43:10;;;;;;;12.82;8.07;;;;;;;7.29;61.56;97341.38;5050153;28;20045;-74
2021/04/13 09:45:47;;;;;;;11.93;8.55;;;;;;;7.37;60.35;97331.91;5049986;28;20052;-74
2021/04/13 09:48:33;;;;;;;12.75;9.07;;;;;;;7.60;60.11;97325.91;5048765;28;20415;-75
2021/04/13 09:51:10;;;;;;;13.70;8.95;;;;;;;7.87;60.41;97322.81;5050668;28;20053;-73
2021/04/13 09:54:01;;;;;;;15.48;8.60;;;;;;;8.10;58.85;97327.63;5052087;28;20106;-73
2021/04/13 09:56:43;;;;;;;12.50;8.55;;;;;;;8.13;58.92;97320.81;5053456;28;20052;-74
2021/04/13 09:59:30;;;;;;;11.40;8.07;;;;;;;8.29;59.52;97318.84;5034021;28;20054;-75
2021/04/13 10:02:04;;;;;;;10.52;7.60;;;;;;;8.65;60.45;97321.38;5053478;28;20049;-72
2021/04/13 10:04:40;;;;;;;10.50;7.35;;;;;;;8.98;55.32;97309.75;5053748;28;20056;-75
2021/04/13 10:07:24;;;;;;;9.63;7.50;;;;;;;9.49;57.62;97311.97;5053252;28;20091;-73
2021/04/13 10:09:50;;;;;;;;;;;;;;;9.82;53.10;97307.56;5054199;28;20568;-75
2021/04/13 10:12:46;;;;;;;11.90;7.60;;;;;;;9.82;54.40;97309.47;5053535;28;20326;-73
2021/04/13 10:15:48;;;;;;;10.50;7.63;;;;;;;9.51;52.13;97307.09;5052894;28;20049;-73
2021/04/13 10:18:38;;;;;;;10.10;7.03;;;;;;;9.34;54.61;97303.97;5052975;28;20052;-72
2021/04/13 10:21:19;;;;;;;9.32;6.65;;;;;;;8.98;52.55;97304.31;5053299;28;20175;-72
2021/04/13 10:24:26;;;;;;;8.52;5.90;;;;;;;8.59;53.61;97302.41;5032671;28;20620;-72
2021/04/13 10:27:20;;;;;;;7.85;6.50;;;;;;;8.38;52.83;97309.06;5033374;28;20053;-72
2021/04/13 10:30:14;;;;;;;9.15;6.15;;;;;;;8.20;51.79;97299.66;5053054;28;20593;-73
2021/04/13 10:33:05;;;;;;;7.95;5.78;;;;;;;8.09;54.31;97288.03;5043285;28;20041;-73
2021/04/13 10:36:07;;;;;;;6.22;4.65;;;;;;;8.10;51.50;97286.94;5053020;28;20467;-73
2021/04/13 10:39:13;;;;;;;6.47;4.82;;;;;;;8.34;52.68;97283.53;5052673;28;20057;-73
2021/04/13 10:42:20;;;;;;;10.15;5.38;;;;;;;8.39;52.48;97286.25;5052124;28;20045;-72
2021/04/13 10:45:19;;;;;;;8.23;5.55;;;;;;;8.29;51.83;97281.66;5053310;28;20507;-74
2021/04/13 10:48:39;;;;;;;7.22;5.43;;;;;;;8.49;52.61;97286.19;5053037;28;20052;-72
2021/04/13 10:51:33;;;;;;;7.00;5.18;;;;;;;8.55;53.41;97278.81;5051624;28;20080;-72
2021/04/13 10:54:18;;;;;;;7.82;4.82;;;;;;;8.34;50.87;97278.13;5033101;28;20046;-72
2021/04/13 10:57:19;;;;;;;6.68;4.28;;;;;;;7.87;48.90;97274.00;5033400;28;20053;-74
2021/04/13 11:00:01;;;;;;;7.32;4.38;;;;;;;7.58;51.00;97276.56;5051475;28;20048;-72
2021/04/13 11:02:57;;;;;;;5.13;3.65;;;;;;;7.35;47.51;97277.97;5052762;28;20049;-72
2021/04/13 11:05:49;;;;;;;5.70;3.30;;;;;;;7.18;48.20;97272.06;5051106;28;20047;-72
2021/04/13 11:08:55;;;;;;;6.45;5.10;;;;;;;7.17;52.84;97267.72;5031491;28;20608;-72
2021/04/13 11:12:05;;;;;;;7.50;5.40;;;;;;;7.09;51.82;97265.56;5014255;28;20049;-72
2021/04/13 11:15:03;;;;;;;9.02;5.47;;;;;;;6.99;52.65;97263.69;5032750;28;20514;-72
2021/04/13 11:18:00;;;;;;;8.18;5.50;;;;;;;7.03;52.21;97262.88;5031666;28;20045;-72
2021/04/13 11:21:05;;;;;;;8.20;5.38;;;;;;;7.17;53.78;97260.41;5031803;28;20053;-72
2021/04/13 11:24:15;;;;;;;6.68;4.70;;;;;;;7.36;51.24;97249.81;4986234;28;20489;-76
2021/04/13 11:27:21;;;;;;;6.30;4.43;;;;;;;7.58;47.37;97250.28;5038655;28;20041;-74
2021/04/13 11:30:15;;;;;;;5.85;4.70;;;;;;;7.71;48.97;97248.06;5051043;28;20033;-74
2021/04/13 11:32:54;;;;;;;;;;;;;;;7.80;50.26;97257.25;5053245;28;20055;-74
2021/04/13 11:35:22;;;;;;;6.22;4.03;;;;;;;7.93;46.49;97248.50;5050716;28;19927;-74
2021/04/13 11:37:57;;;;;;;7.47;4.45;;;;;;;8.02;47.96;97244.09;5052160;28;20500;-74
2021/04/13 11:40:32;;;;;;;7.78;4.35;;;;;;;8.10;49.59;97240.81;5050877;28;20495;-74
2021/04/13 11:42:59;;;;;;;5.43;4.13;;;;;;;8.27;51.01;97231.50;5052124;28;20057;-74
2021/04/13 11:45:41;;;;;;;4.10;3.53;;;;;;;8.25;47.73;97230.97;5051321;28;20056;-74
2021/04/13 11:48:16;;;;;;;5.32;4.07;;;;;;;8.47;46.67;97228.66;5050750;28;20110;-74
2021/04/13 11:50:57;;;;;;;5.68;3.40;;;;;;;8.70;46.86;97227.13;5052022;28;20049;-75
2021/04/13 11:53:31;;;;;;;8.30;4.03;;;;;;;8.92;45.83;97229.38;5050800;28;20049;-74
2021/04/13 11:55:57;;;;;;;5.70;3.22;;;;;;;9.10;43.36;97225.94;5052114;28;20049;-74
2021/04/13 11:58:25;;;;;;;4.55;3.20;;;;;;;9.41;40.66;97231.06;5051043;28;20047;-74
2021/04/13 12:00:53;;;;;;;5.35;3.30;;;;;;;9.48;42.17;97234.25;5051402;28;20412;-74
2021/04/13 12:03:22;;;;;;;3.63;2.80;;;;;;;9.62;39.48;97235.16;5051185;28;20053;-75
2021/04/13 12:05:50;;;;;;;5.88;3.50;;;;;;;9.64;42.29;97240.31;5051314;28;20424;-74
2021/04/13 12:08:40;;;;;;;5.25;3.35;;;;;;;9.65;40.45;97237.28;5039466;28;20512;-72
2021/04/13 12:11:07;;;;;;;4.50;3.15;;;;;;;9.52;39.46;97229.03;5050434;28;20475;-74
2021/04/13 12:13:46;;;;;;;4.32;3.30;;;;;;;9.55;39.01;97228.44;5051425;28;20084;-72